Time;durP1;ratioP1;P1;durP2;ratioP2;P2;SDS_P1;SDS_P2;PMS_P1;PMS_P2;Temp;Humidity;BMP_temperature;BMP_pressure;BME280_temperature;BME280_humidity;BME280_pressure;Samples;Min_cycle;Max_cycle;Signal;HPM_P1;HPM_P2
2023/12/21 00:01:39;;;;;;;;;;;;;;;8.04;53.73;97764.47;4443339;32;20102;-83
2023/12/21 00:04:06;;;;;;;5.85;1.55;;;;;;;7.89;54.59;97774.50;4443501;32;19949;-84
2023/12/21 00:06:33;;;;;;;4.62;1.50;;;;;;;8.57;52.53;97758.22;4443421;32;20105;-83
2023/12/21 00:09:00;;;;;;;4.25;1.50;;;;;;;8.94;51.76;97752.47;4442627;32;20100;-83
2023/12/21 00:11:27;;;;;;;;;;;;;;;8.16;53.69;97755.47;4443205;32;20135;-83
2023/12/21 00:13:54;;;;;;;4.55;1.87;;;;;;;8.32;53.22;97759.16;4443123;32;20349;-83
2023/12/21 00:16:20;;;;;;;;;;;;;;;8.29;53.72;97745.56;4443018;32;20774;-83
2023/12/21 00:18:47;;;;;;;5.37;1.65;;;;;;;8.24;53.79;97740.59;4443345;32;19973;-83
2023/12/21 00:21:14;;;;;;;6.68;1.58;;;;;;;8.46;53.48;97740.66;4443101;32;20086;-83
2023/12/21 00:23:41;;;;;;;5.70;1.80;;;;;;;8.27;53.87;97740.47;4442807;32;20420;-84
2023/12/21 00:26:08;;;;;;;;;;;;;;;7.36;56.89;97728.44;4443101;32;20164;-83
2023/12/21 00:28:35;;;;;;;6.57;2.05;;;;;;;6.92;57.74;97728.25;4429042;32;20717;-83
2023/12/21 00:31:02;;;;;;;;;;;;;;;6.36;60.37;97728.31;4441766;32;20134;-83
2023/12/21 00:33:29;;;;;;;6.22;2.12;;;;;;;6.34;60.12;97720.66;4442931;32;20327;-83
2023/12/21 00:35:56;;;;;;;6.45;2.28;;;;;;;7.16;58.12;97716.31;4442408;32;20097;-84
2023/12/21 00:38:22;;;;;;;;;;;;;;;7.26;57.61;97720.22;4443061;32;20081;-83
2023/12/21 00:40:50;;;;;;;5.28;2.03;;;;;;;7.43;57.54;97717.91;4442442;32;20012;-84
2023/12/21 00:43:17;;;;;;;4.72;1.87;;;;;;;7.01;58.51;97719.38;4442536;32;20085;-83
2023/12/21 00:45:45;;;;;;;5.35;1.92;;;;;;;6.52;60.34;97715.88;4442869;32;20101;-83
2023/12/21 00:48:13;;;;;;;6.62;2.17;;;;;;;7.06;59.03;97720.06;4442690;32;20078;-83
2023/12/21 00:50:40;;;;;;;7.97;2.22;;;;;;;7.63;56.37;97718.91;4442162;32;20521;-83
2023/12/21 00:53:07;;;;;;;7.72;2.40;;;;;;;8.82;52.30;97712.59;4442822;32;20437;-83
2023/12/21 00:55:34;;;;;;;12.93;2.25;;;;;;;8.44;53.31;97718.47;4442675;32;20134;-83
2023/12/21 00:58:01;;;;;;;8.13;2.67;;;;;;;8.51;53.08;97718.19;4442523;32;20099;-83
2023/12/21 01:00:28;;;;;;;7.20;2.87;;;;;;;8.37;54.03;97720.44;4442623;32;20136;-83
2023/12/21 01:02:55;;;;;;;;;;;;;;;8.15;55.14;97722.97;4443125;32;20481;-83
2023/12/21 01:05:21;;;;;;;9.38;2.67;;;;;;;8.06;55.41;97725.88;4442540;32;20364;-83
2023/12/21 01:07:48;;;;;;;;;;;;;;;8.54;53.90;97727.50;4443286;32;20100;-83
2023/12/21 01:10:16;;;;;;;11.45;3.03;;;;;;;8.16;54.68;97734.06;4442405;32;19980;-83
2023/12/21 01:12:42;;;;;;;6.82;2.70;;;;;;;8.67;52.73;97726.09;4441885;32;20058;-83
2023/12/21 01:15:09;;;;;;;;;;;;;;;7.93;55.08;97722.94;4442311;32;20432;-83
2023/12/21 01:17:37;;;;;;;9.88;2.75;;;;;;;7.41;56.68;97723.97;4442084;32;19968;-83
2023/12/21 01:20:04;;;;;;;9.20;2.70;;;;;;;7.17;58.19;97720.53;4428057;32;20077;-83
2023/12/21 01:22:31;;;;;;;12.18;4.28;;;;;;;7.27;58.37;97718.50;4441905;32;20101;-83
2023/12/21 01:24:58;;;;;;;18.15;7.00;;;;;;;6.87;59.74;97727.53;4441605;32;20517;-83
2023/12/21 01:27:25;;;;;;;23.80;11.02;;;;;;;6.26;63.23;97716.66;4441620;32;20376;-83
2023/12/21 01:29:58;;;;;;;24.37;10.43;;;;;;;5.62;66.89;97718.53;4441682;32;20174;-83
2023/12/21 01:32:25;;;;;;;24.37;10.98;;;;;;;5.25;69.44;97711.88;4427216;32;20176;-83
2023/12/21 01:34:52;;;;;;;27.55;11.60;;;;;;;5.11;70.83;97703.75;4441390;32;20096;-83
2023/12/21 01:37:20;;;;;;;24.65;10.32;;;;;;;5.01;72.05;97702.31;4441449;32;20077;-83
2023/12/21 01:39:46;;;;;;;25.00;11.85;;;;;;;4.85;73.21;97701.84;4440789;32;20081;-83
2023/12/21 01:42:13;;;;;;;;;;;;;;;4.46;76.51;97701.94;4441145;32;20163;-83
2023/12/21 01:44:40;;;;;;;24.67;10.77;;;;;;;4.51;77.43;97694.16;4441328;32;19995;-83
2023/12/21 01:47:07;;;;;;;;;;;;;;;4.69;76.77;97698.84;4441217;32;20078;-83
2023/12/21 01:49:34;;;;;;;27.42;11.30;;;;;;;4.65;76.48;97698.06;4441832;32;20000;-83
2023/12/21 01:52:01;;;;;;;26.33;11.45;;;;;;;4.56;77.24;97694.88;4427253;32;20098;-83
2023/12/21 01:54:28;;;;;;;29.15;12.93;;;;;;;4.75;76.65;97682.50;4441016;32;20115;-83
2023/12/21 01:56:55;;;;;;;27.62;12.45;;;;;;;4.29;79.16;97684.47;4427038;32;20106;-83
2023/12/21 01:59:22;;;;;;;;;;;;;;;4.34;79.79;97681.78;4441718;32;20100;-83
2023/12/21 02:01:49;;;;;;;27.27;12.13;;;;;;;4.49;79.84;97676.34;4440558;32;19973;-83
2023/12/21 02:04:16;;;;;;;25.83;11.55;;;;;;;4.83;78.55;97680.59;4440830;32;20106;-83
2023/12/21 02:06:43;;;;;;;27.27;10.98;;;;;;;4.71;77.58;97674.06;4440616;32;20120;-83
2023/12/21 02:09:12;;;;;;;21.95;9.60;;;;;;;4.44;79.02;97659.41;4441145;32;20073;-83
2023/12/21 02:11:39;;;;;;;22.05;10.63;;;;;;;4.42;78.90;97668.84;4427404;32;20085;-83
2023/12/21 02:14:06;;;;;;;;;;;;;;;4.30;80.13;97659.75;4441226;32;20594;-83
2023/12/21 02:16:56;;;;;;;26.37;11.52;;;;;;;4.41;80.29;97646.72;4427069;32;19964;-83
2023/12/21 02:19:23;;;;;;;29.10;13.13;;;;;;;4.81;78.05;97649.97;4427486;32;20058;-83
2023/12/21 02:21:52;;;;;;;31.15;13.95;;;;;;;4.91;76.75;97643.72;4440504;32;20101;-82
2023/12/21 02:24:19;;;;;;;33.80;15.30;;;;;;;5.12;76.74;97623.56;4441071;32;20085;-83
2023/12/21 02:26:46;;;;;;;30.73;15.30;;;;;;;5.19;76.26;97633.56;4440663;32;20492;-83
2023/12/21 02:29:13;;;;;;;31.75;15.00;;;;;;;5.28;74.81;97614.56;4440829;32;20096;-83
2023/12/21 02:31:40;;;;;;;32.30;14.23;;;;;;;5.91;72.81;97610.19;4440639;32;20097;-83
2023/12/21 02:34:07;;;;;;;32.05;15.02;;;;;;;5.97;71.40;97610.84;4426809;32;20444;-83
2023/12/21 02:36:34;;;;;;;33.85;15.18;;;;;;;5.86;71.59;97620.56;4440164;32;20075;-83
2023/12/21 02:39:01;;;;;;;31.98;14.05;;;;;;;5.97;71.41;97643.28;4426672;32;20081;-83
2023/12/21 02:41:28;;;;;;;;;;;;;;;5.77;71.64;97654.09;4440736;32;20109;-83
2023/12/21 02:43:55;;;;;;;30.50;14.82;;;;;;;5.67;73.06;97650.12;4440050;32;19977;-83
2023/12/21 02:46:23;;;;;;;;;;;;;;;5.63;73.44;97651.09;4440528;32;20103;-83
2023/12/21 02:48:51;;;;;;;33.97;15.82;;;;;;;5.67;72.96;97645.84;4440078;32;19993;-83
2023/12/21 02:51:19;;;;;;;28.27;14.43;;;;;;;5.45;73.98;97655.88;4440716;32;20097;-83
2023/12/21 02:53:45;;;;;;;33.25;15.00;;;;;;;5.47;73.32;97649.00;4441585;32;20150;-83
2023/12/21 02:56:12;;;;;;;31.27;15.00;;;;;;;5.17;74.32;97653.25;4442183;32;20085;-83
2023/12/21 02:58:40;;;;;;;32.42;15.40;;;;;;;5.38;73.77;97654.37;4442760;32;20089;-83
2023/12/21 03:01:07;;;;;;;33.10;15.77;;;;;;;5.25;74.32;97668.37;4443053;32;20165;-83
2023/12/21 03:03:34;;;;;;;32.67;15.52;;;;;;;5.02;75.70;97653.69;4442284;32;20085;-83
2023/12/21 03:06:01;;;;;;;33.63;15.20;;;;;;;5.26;75.17;97659.00;4442246;32;20061;-83
2023/12/21 03:08:28;;;;;;;33.70;15.75;;;;;;;5.03;76.79;97664.75;4442508;32;20076;-83
2023/12/21 03:10:55;;;;;;;31.83;15.48;;;;;;;5.32;75.08;97659.66;4441985;32;20158;-83
2023/12/21 03:13:22;;;;;;;;;;;;;;;5.51;73.48;97648.00;4443230;32;20149;-83
2023/12/21 03:15:49;;;;;;;28.30;13.73;;;;;;;5.83;71.82;97646.22;4442756;32;19985;-83
2023/12/21 03:18:16;;;;;;;31.92;13.68;;;;;;;5.76;71.63;97647.31;4428535;32;20085;-83
2023/12/21 03:20:43;;;;;;;29.12;13.57;;;;;;;5.40;73.52;97639.81;4442668;32;20112;-83
2023/12/21 03:23:10;;;;;;;;;;;;;;;5.48;74.08;97637.03;4443145;32;20097;-83
2023/12/21 03:25:38;;;;;;;30.90;13.13;;;;;;;5.61;73.85;97637.50;4442391;32;19977;-83
2023/12/21 03:28:06;;;;;;;28.02;12.37;;;;;;;5.53;74.58;97635.19;4442503;32;20100;-83
2023/12/21 03:30:33;;;;;;;28.38;13.85;;;;;;;5.40;75.37;97631.28;4442268;32;20084;-83
2023/12/21 03:33:00;;;;;;;30.37;14.13;;;;;;;5.64;74.14;97633.16;4442559;32;20094;-83
2023/12/21 03:35:27;;;;;;;26.08;12.65;;;;;;;5.66;73.78;97630.56;4442878;32;20108;-83
2023/12/21 03:37:54;;;;;;;26.50;12.68;;;;;;;5.74;73.00;97634.56;4442542;32;20066;-83
2023/12/21 03:40:21;;;;;;;;;;;;;;;5.81;71.97;97632.63;4442843;32;20093;-83
2023/12/21 03:42:52;;;;;;;27.75;12.82;;;;;;;5.88;72.00;97634.12;4442966;32;19992;-83
2023/12/21 03:45:19;;;;;;;26.62;12.98;;;;;;;5.80;71.62;97631.81;4442212;32;20466;-83
2023/12/21 03:47:48;;;;;;;33.00;14.40;;;;;;;6.29;69.17;97629.47;4429017;32;20403;-83
2023/12/21 03:50:15;;;;;;;28.75;13.05;;;;;;;6.08;69.95;97633.56;4429273;32;20595;-83
2023/12/21 03:52:42;;;;;;;31.12;13.68;;;;;;;5.78;70.74;97632.75;4428859;32;20148;-83
2023/12/21 03:55:09;;;;;;;29.95;13.77;;;;;;;6.13;69.91;97630.84;4442511;32;20481;-83
2023/12/21 03:57:36;;;;;;;30.52;14.02;;;;;;;5.84;71.30;97619.72;4442167;32;20471;-83
2023/12/21 04:00:03;;;;;;;;;;;;;;;5.65;71.97;97619.47;4442380;32;20508;-83
2023/12/21 04:02:31;;;;;;;31.17;14.55;;;;;;;5.88;71.30;97618.78;4442842;32;19961;-83
2023/12/21 04:04:57;;;;;;;30.98;13.52;;;;;;;6.20;69.58;97611.84;4442334;32;20157;-83
2023/12/21 04:07:24;;;;;;;27.92;13.62;;;;;;;6.25;69.20;97603.09;4442278;32;20128;-82
2023/12/21 04:09:51;;;;;;;24.70;13.10;;;;;;;6.40;67.62;97609.47;4442341;32;20089;-83
2023/12/21 04:12:18;;;;;;;31.33;14.75;;;;;;;6.00;69.50;97603.06;4442376;32;20101;-83
2023/12/21 04:14:45;;;;;;;;;;;;;;;6.06;69.57;97595.19;4442103;32;20120;-82
2023/12/21 04:17:12;;;;;;;27.37;14.15;;;;;;;5.87;70.02;97601.75;4442130;32;20296;-83
2023/12/21 04:19:39;;;;;;;28.77;13.65;;;;;;;6.00;69.67;97604.78;4428228;32;20124;-83
2023/12/21 04:22:06;;;;;;;30.58;14.27;;;;;;;6.07;69.94;97604.56;4442182;32;20120;-84
2023/12/21 04:24:33;;;;;;;;;;;;;;;6.37;69.11;97592.44;4442551;32;20081;-83
2023/12/21 04:27:00;;;;;;;28.05;13.38;;;;;;;6.70;68.64;97589.66;4441810;32;19980;-83
2023/12/21 04:29:26;;;;;;;27.48;13.35;;;;;;;6.94;67.53;97588.78;4442432;32;20112;-83
2023/12/21 04:31:53;;;;;;;;;;;;;;;7.22;66.68;97587.78;4442999;32;20088;-83
2023/12/21 04:34:21;;;;;;;25.85;11.82;;;;;;;7.15;67.84;97594.03;4441916;32;19949;-83
2023/12/21 04:36:48;;;;;;;29.30;13.00;;;;;;;6.90;68.56;97594.06;4441838;32;20076;-83
2023/12/21 04:39:15;;;;;;;26.70;13.00;;;;;;;7.03;69.25;97581.66;4442046;32;20690;-83
2023/12/21 04:41:41;;;;;;;24.92;12.35;;;;;;;7.08;69.72;97580.59;4441449;32;20115;-83
2023/12/21 04:44:08;;;;;;;26.92;12.43;;;;;;;6.74;71.00;97567.31;4428309;32;20101;-83
2023/12/21 04:46:35;;;;;;;;;;;;;;;6.22;73.96;97567.34;4442194;32;20082;-83
2023/12/21 04:49:02;;;;;;;28.20;12.60;;;;;;;6.11;74.96;97559.16;4441770;32;20442;-83
2023/12/21 04:51:29;;;;;;;24.77;12.18;;;;;;;6.06;76.21;97561.91;4442302;32;20102;-83
2023/12/21 04:53:56;;;;;;;;;;;;;;;5.56;78.83;97553.22;4429328;32;20100;-83
2023/12/21 04:56:22;;;;;;;27.20;12.48;;;;;;;5.95;76.72;97547.72;4441543;32;19973;-83
2023/12/21 04:58:49;;;;;;;;;;;;;;;6.16;75.63;97541.06;4442609;32;20460;-83
2023/12/21 05:01:16;;;;;;;28.50;11.85;;;;;;;6.09;75.59;97540.47;4442100;32;20308;-83
2023/12/21 05:03:43;;;;;;;25.60;12.02;;;;;;;6.18;75.30;97529.91;4441819;32;20108;-83
2023/12/21 05:06:10;;;;;;;27.62;12.43;;;;;;;5.80;76.64;97528.56;4427959;32;20104;-83
2023/12/21 05:08:37;;;;;;;26.10;12.55;;;;;;;5.64;77.87;97519.72;4428105;32;20504;-83
2023/12/21 05:11:04;;;;;;;28.00;14.10;;;;;;;5.67;77.84;97519.59;4441271;32;20089;-83
2023/12/21 05:13:31;;;;;;;28.92;13.62;;;;;;;5.63;77.13;97518.84;4441484;32;20081;-83
2023/12/21 05:15:58;;;;;;;26.48;13.68;;;;;;;6.01;75.30;97515.09;4441046;32;20086;-82
2023/12/21 05:18:25;;;;;;;29.02;12.65;;;;;;;5.57;76.61;97495.19;4441168;32;20106;-83
2023/12/21 05:20:52;;;;;;;29.20;13.52;;;;;;;5.49;77.30;97486.00;4441406;32;20117;-83
2023/12/21 05:23:19;;;;;;;;;;;;;;;5.63;77.26;97479.63;4441260;32;20149;-83
2023/12/21 05:25:46;;;;;;;24.20;10.73;;;;;;;5.74;76.54;97477.53;4441667;32;20037;-83
2023/12/21 05:28:13;;;;;;;27.80;12.20;;;;;;;5.73;77.45;97476.72;4441425;32;20135;-83
2023/12/21 05:30:40;;;;;;;26.20;11.52;;;;;;;5.79;76.68;97484.19;4440789;32;20101;-83
2023/12/21 05:33:07;;;;;;;27.10;11.27;;;;;;;5.96;75.25;97482.88;4441084;32;20100;-83
2023/12/21 05:35:35;;;;;;;28.27;11.68;;;;;;;5.77;76.20;97482.59;4441073;32;20112;-83
2023/12/21 05:38:02;;;;;;;25.27;11.50;;;;;;;5.79;76.32;97478.25;4427522;32;20162;-83
2023/12/21 05:40:28;;;;;;;26.55;11.00;;;;;;;5.94;74.89;97472.63;4440595;32;20100;-83
2023/12/21 05:42:55;;;;;;;;;;;;;;;6.12;73.31;97467.81;4441165;32;20104;-83
2023/12/21 05:45:22;;;;;;;22.08;9.68;;;;;;;6.16;72.90;97470.19;4440531;32;19984;-83
2023/12/21 05:47:49;;;;;;;21.65;10.25;;;;;;;6.43;71.54;97458.16;4441203;32;20373;-83
2023/12/21 05:50:16;;;;;;;22.20;9.52;;;;;;;5.88;73.27;97449.78;4440860;32;20133;-83
2023/12/21 05:52:43;;;;;;;24.58;10.68;;;;;;;5.53;75.19;97448.41;4440581;32;20089;-83
2023/12/21 05:55:15;;;;;;;22.90;9.90;;;;;;;5.57;75.64;97454.25;4440660;32;20099;-82
2023/12/21 05:57:43;;;;;;;24.73;10.63;;;;;;;5.30;77.06;97454.22;4440365;32;20085;-83
2023/12/21 06:00:11;;;;;;;18.70;9.00;;;;;;;5.35;76.77;97444.69;4440075;32;20487;-83
2023/12/21 06:02:38;;;;;;;22.90;9.90;;;;;;;5.31;76.71;97452.50;4440598;32;20110;-83
2023/12/21 06:05:05;;;;;;;;;;;;;;;5.50;76.20;97454.41;4440672;32;20073;-83
2023/12/21 06:07:32;;;;;;;21.65;9.45;;;;;;;5.37;75.57;97437.78;4440433;32;19980;-83
2023/12/21 06:09:59;;;;;;;21.65;9.93;;;;;;;5.44;75.60;97426.50;4440294;32;20478;-83
2023/12/21 06:12:26;;;;;;;22.30;9.95;;;;;;;5.16;76.60;97423.13;4440244;32;20101;-83
2023/12/21 06:14:53;;;;;;;22.65;10.75;;;;;;;5.23;76.61;97435.69;4440231;32;20078;-83
2023/12/21 06:17:20;;;;;;;20.12;9.13;;;;;;;5.06;77.13;97427.69;4426515;32;20109;-83
2023/12/21 06:19:47;;;;;;;22.87;9.75;;;;;;;4.97;77.36;97412.63;4440017;32;20157;-83
2023/12/21 06:22:14;;;;;;;20.58;9.35;;;;;;;5.05;77.01;97422.63;4440093;32;20168;-83
2023/12/21 06:24:41;;;;;;;20.58;9.27;;;;;;;4.92;77.55;97423.00;4440159;32;20150;-83
2023/12/21 06:27:08;;;;;;;;;;;;;;;4.95;77.22;97419.50;4440124;32;20149;-83
2023/12/21 06:29:35;;;;;;;21.62;10.07;;;;;;;4.87;77.62;97426.56;4442256;32;19981;-83
2023/12/21 06:32:02;;;;;;;;;;;;;;;5.08;76.00;97419.97;4442616;32;20097;-83
2023/12/21 06:34:29;;;;;;;23.75;10.35;;;;;;;5.39;74.29;97427.50;4442167;32;19965;-83
2023/12/21 06:36:56;;;;;;;23.23;10.57;;;;;;;4.96;76.12;97418.63;4442316;32;20158;-83
2023/12/21 06:39:23;;;;;;;24.80;10.10;;;;;;;5.05;76.31;97410.66;4442746;32;20148;-82
2023/12/21 06:41:50;;;;;;;21.12;8.77;;;;;;;5.22;76.09;97407.59;4441944;32;20093;-83
2023/12/21 06:44:16;;;;;;;;;;;;;;;4.83;77.44;97407.94;4428910;32;20150;-83
2023/12/21 06:46:43;;;;;;;19.35;8.88;;;;;;;4.81;79.19;97403.75;4442419;32;20244;-83
2023/12/21 06:49:13;;;;;;;22.23;9.52;;;;;;;5.08;78.22;97402.91;4442271;32;20112;-83
2023/12/21 06:51:41;;;;;;;21.05;9.07;;;;;;;5.25;76.88;97398.97;4442423;32;20085;-83
2023/12/21 06:54:08;;;;;;;21.60;9.13;;;;;;;5.31;76.78;97412.41;4442406;32;20519;-83
2023/12/21 06:56:35;;;;;;;;;;;;;;;5.61;75.46;97423.38;4442441;32;20440;-83
2023/12/21 06:59:02;;;;;;;22.30;9.45;;;;;;;5.82;73.72;97417.53;4442673;32;19984;-83
2023/12/21 07:01:29;;;;;;;22.92;9.82;;;;;;;5.31;76.61;97411.56;4441839;32;20440;-83
2023/12/21 07:03:57;;;;;;;23.80;10.52;;;;;;;5.05;78.35;97407.28;4442384;32;20085;-83
2023/12/21 07:06:25;;;;;;;23.70;10.45;;;;;;;5.50;76.95;97413.47;4442486;32;20101;-83
2023/12/21 07:08:52;;;;;;;21.87;9.80;;;;;;;5.78;76.38;97407.47;4442379;32;20113;-83
2023/12/21 07:11:19;;;;;;;19.92;8.70;;;;;;;6.42;73.12;97405.25;4442834;32;20152;-83
2023/12/21 07:13:46;;;;;;;19.77;8.82;;;;;;;6.41;73.50;97400.19;4442532;32;20107;-83
2023/12/21 07:16:13;;;;;;;19.23;8.85;;;;;;;6.46;73.07;97398.25;4442156;32;20433;-83
2023/12/21 07:18:40;;;;;;;20.98;9.02;;;;;;;6.70;71.87;97404.19;4442279;32;20409;-83
2023/12/21 07:21:07;;;;;;;21.27;9.07;;;;;;;6.69;71.59;97411.06;4442420;32;20091;-83
2023/12/21 07:23:33;;;;;;;19.58;8.73;;;;;;;6.20;74.12;97412.84;4442141;32;20085;-83
2023/12/21 07:26:00;;;;;;;;;;;;;;;6.44;73.13;97400.88;4442871;32;20133;-83
2023/12/21 07:28:28;;;;;;;17.80;7.90;;;;;;;6.43;74.05;97409.47;4443464;32;20028;-83
2023/12/21 07:30:55;;;;;;;19.45;8.80;;;;;;;6.41;73.66;97395.06;4442153;32;20108;-83
2023/12/21 07:33:22;;;;;;;19.92;8.50;;;;;;;6.25;75.00;97390.47;4428867;32;20134;-83
2023/12/21 07:35:50;;;;;;;20.25;8.65;;;;;;;6.19;75.44;97384.75;4442485;32;20097;-83
2023/12/21 07:38:17;;;;;;;17.15;7.65;;;;;;;6.41;74.82;97389.94;4442285;32;20078;-83
2023/12/21 07:40:44;;;;;;;;;;;;;;;6.49;73.84;97395.63;4442826;32;20077;-83
2023/12/21 07:43:12;;;;;;;18.20;7.87;;;;;;;6.28;75.72;97400.63;4442611;32;20553;-83
2023/12/21 07:45:39;;;;;;;21.33;9.05;;;;;;;6.16;76.15;97392.50;4442618;32;20120;-83
2023/12/21 07:48:05;;;;;;;;;;;;;;;6.45;74.91;97392.31;4443005;32;20093;-83
2023/12/21 07:50:32;;;;;;;18.00;8.10;;;;;;;6.99;72.04;97385.97;4442294;32;19961;-83
2023/12/21 07:52:59;;;;;;;;;;;;;;;6.84;72.75;97382.28;4442772;32;20469;-83
2023/12/21 07:55:26;;;;;;;18.10;8.05;;;;;;;6.84;72.47;97382.28;4442473;32;19953;-83
2023/12/21 07:57:53;;;;;;;18.17;7.62;;;;;;;6.85;72.60;97383.97;4442145;32;20089;-83
2023/12/21 08:00:19;;;;;;;;;;;;;;;6.65;73.28;97386.44;4442664;32;20108;-83
2023/12/21 08:02:46;;;;;;;18.62;8.20;;;;;;;6.65;73.60;97371.06;4442361;32;19969;-83
2023/12/21 08:05:14;;;;;;;19.92;8.95;;;;;;;6.85;73.02;97371.13;4441781;32;20457;-83
2023/12/21 08:07:42;;;;;;;19.95;9.38;;;;;;;7.09;72.16;97371.06;4428788;32;20101;-83
2023/12/21 08:10:09;;;;;;;19.80;8.20;;;;;;;7.54;70.44;97368.38;4442367;32;20094;-83
2023/12/21 08:12:36;;;;;;;18.30;8.43;;;;;;;7.96;68.86;97368.31;4442333;32;20094;-84
2023/12/21 08:15:03;;;;;;;;;;;;;;;7.95;68.21;97364.06;4442813;32;20058;-83
2023/12/21 08:17:31;;;;;;;16.73;7.22;;;;;;;8.15;67.91;97363.19;4442836;32;19988;-83
2023/12/21 08:19:58;;;;;;;19.98;8.43;;;;;;;7.91;68.32;97359.97;4429099;32;20166;-83
2023/12/21 08:22:25;;;;;;;17.55;7.53;;;;;;;8.44;66.92;97354.25;4442355;32;20096;-83
2023/12/21 08:24:52;;;;;;;17.55;7.62;;;;;;;7.83;68.01;97354.31;4442236;32;20051;-83
2023/12/21 08:27:20;;;;;;;17.50;7.72;;;;;;;7.41;69.63;97349.25;4442349;32;20098;-83
2023/12/21 08:29:47;;;;;;;16.70;8.10;;;;;;;7.81;68.73;97351.00;4442315;32;20081;-83
2023/12/21 08:32:13;;;;;;;19.70;7.75;;;;;;;7.29;70.62;97355.72;4442591;32;20085;-83
2023/12/21 08:34:42;;;;;;;18.12;7.72;;;;;;;7.32;70.62;97345.31;4441800;32;20155;-83
2023/12/21 08:37:10;;;;;;;19.25;7.62;;;;;;;7.27;70.43;97346.41;4442159;32;20112;-83
2023/12/21 08:39:39;;;;;;;18.48;8.65;;;;;;;7.16;71.41;97339.16;4441695;32;20396;-83
2023/12/21 08:42:08;;;;;;;19.17;8.60;;;;;;;7.14;70.95;97328.13;4442329;32;20056;-83
2023/12/21 08:44:36;;;;;;;18.67;7.72;;;;;;;7.02;71.63;97321.75;4442488;32;20376;-83
2023/12/21 08:47:05;;;;;;;20.23;8.13;;;;;;;7.16;70.97;97329.72;4427741;32;20118;-83
2023/12/21 08:49:32;;;;;;;17.48;8.50;;;;;;;7.59;69.26;97334.81;4441768;32;20100;-83
2023/12/21 08:52:00;;;;;;;17.83;7.80;;;;;;;8.07;67.42;97344.72;4440455;32;20081;-83
2023/12/21 08:54:27;;;;;;;16.62;7.28;;;;;;;8.17;66.89;97358.81;4427663;32;20117;-83
2023/12/21 08:56:54;;;;;;;18.20;7.53;;;;;;;8.05;67.40;97349.91;4441877;32;20449;-83
2023/12/21 08:59:25;;;;;;;18.40;7.95;;;;;;;8.01;67.57;97363.81;4445744;32;20085;-83
2023/12/21 09:01:56;;;;;;;17.35;7.68;;;;;;;8.18;67.46;97351.94;4445421;32;20128;-83
2023/12/21 09:04:23;;;;;;;17.70;7.47;;;;;;;8.19;66.90;97351.03;4432942;32;20553;-83
2023/12/21 09:06:50;;;;;;;;;;;;;;;8.16;67.21;97341.75;4432427;32;20578;-83
2023/12/21 09:09:17;;;;;;;17.58;7.87;;;;;;;8.90;64.56;97342.66;4447574;32;19949;-83
2023/12/21 09:11:43;;;;;;;;;;;;;;;9.20;62.67;97348.09;4434374;32;20061;-84
2023/12/21 09:14:10;;;;;;;17.67;7.53;;;;;;;8.98;63.41;97339.72;4446389;32;19950;-83
2023/12/21 09:16:37;;;;;;;;;;;;;;;8.97;63.84;97331.19;4446397;32;20089;-83
2023/12/21 09:19:04;;;;;;;16.58;7.18;;;;;;;8.71;64.43;97334.13;4444021;32;19973;-83
2023/12/21 09:21:31;;;;;;;17.05;8.18;;;;;;;8.77;64.02;97327.88;4444312;32;20109;-84
2023/12/21 09:23:59;;;;;;;16.77;7.47;;;;;;;8.47;65.64;97317.25;4442367;32;20120;-83
2023/12/21 09:26:27;;;;;;;17.37;7.70;;;;;;;8.51;65.83;97299.06;4428036;32;20106;-84
2023/12/21 09:28:54;;;;;;;16.45;6.97;;;;;;;8.52;65.90;97312.75;4442173;32;20149;-83
2023/12/21 09:31:21;;;;;;;;;;;;;;;8.44;66.36;97291.72;4443569;32;20086;-84
2023/12/21 09:33:48;;;;;;;16.05;6.87;;;;;;;8.73;64.89;97282.66;4443113;32;19973;-84
2023/12/21 09:36:15;;;;;;;;;;;;;;;8.36;65.50;97279.19;4446542;32;20057;-84
2023/12/21 09:38:42;;;;;;;14.95;6.55;;;;;;;8.35;65.99;97270.66;4435733;32;20052;-84
2023/12/21 09:41:09;;;;;;;19.08;7.37;;;;;;;8.68;65.75;97269.97;4448236;32;20080;-84
2023/12/21 09:43:38;;;;;;;17.08;7.45;;;;;;;8.67;64.85;97273.47;4448084;32;20065;-83
2023/12/21 09:46:05;;;;;;;14.80;6.22;;;;;;;8.71;64.49;97267.25;4434703;32;20092;-84
2023/12/21 09:48:32;;;;;;;16.83;6.65;;;;;;;8.51;65.86;97252.81;4435027;32;20089;-83
2023/12/21 09:51:02;;;;;;;13.40;6.05;;;;;;;8.66;65.74;97253.81;4433231;32;20119;-84
2023/12/21 09:53:30;;;;;;;13.68;6.00;;;;;;;8.76;65.37;97257.59;4434802;32;20096;-84
2023/12/21 09:55:59;;;;;;;12.23;5.68;;;;;;;8.72;64.80;97234.66;4433757;32;20710;-83
2023/12/21 09:58:26;;;;;;;12.73;5.62;;;;;;;8.33;65.61;97233.06;4448113;32;20067;-84
2023/12/21 10:00:55;;;;;;;16.12;6.45;;;;;;;8.68;64.49;97237.38;4433793;32;20061;-84
2023/12/21 10:03:22;;;;;;;16.27;6.35;;;;;;;8.53;64.70;97225.28;4448975;32;20162;-84
2023/12/21 10:05:53;;;;;;;13.27;5.70;;;;;;;8.50;64.61;97209.97;4435158;32;20074;-84
2023/12/21 10:08:20;;;;;;;16.00;6.30;;;;;;;8.55;64.84;97200.31;4448911;32;20096;-83
2023/12/21 10:10:47;;;;;;;;;;;;;;;8.14;65.16;97179.09;4435076;32;20053;-84
2023/12/21 10:13:15;;;;;;;12.87;5.93;;;;;;;8.17;65.22;97191.81;4448712;32;19953;-83
2023/12/21 10:15:42;;;;;;;14.55;5.95;;;;;;;8.28;65.43;97181.00;4443223;32;20149;-84
2023/12/21 10:18:09;;;;;;;14.10;6.47;;;;;;;7.86;67.18;97171.81;4443184;32;20156;-83
2023/12/21 10:20:36;;;;;;;16.17;6.72;;;;;;;8.18;65.94;97165.19;4443043;32;20437;-85
2023/12/21 10:23:04;;;;;;;14.60;6.53;;;;;;;8.00;66.70;97168.66;4428263;32;20116;-83
2023/12/21 10:25:31;;;;;;;16.23;6.57;;;;;;;8.07;66.55;97159.72;4439971;32;20115;-85
2023/12/21 10:27:59;;;;;;;15.25;6.60;;;;;;;8.13;66.59;97154.31;4440441;32;20080;-83
2023/12/21 10:30:27;;;;;;;13.35;6.18;;;;;;;8.05;66.78;97151.28;4441946;32;20104;-83
2023/12/21 10:32:57;;;;;;;14.57;5.90;;;;;;;8.07;66.61;97137.44;4441724;32;20058;-82
2023/12/21 10:35:25;;;;;;;14.20;6.10;;;;;;;8.08;66.19;97143.41;4428709;32;20089;-83
2023/12/21 10:37:53;;;;;;;16.08;7.07;;;;;;;8.18;66.32;97123.25;4441684;32;20089;-83
2023/12/21 10:40:23;;;;;;;17.02;6.80;;;;;;;8.04;66.28;97111.06;4441039;32;20443;-84
2023/12/21 10:42:51;;;;;;;15.60;6.60;;;;;;;8.15;66.44;97105.44;4441730;32;20112;-83
2023/12/21 10:45:19;;;;;;;14.52;6.68;;;;;;;7.95;66.51;97090.94;4442236;32;20129;-83
2023/12/21 10:48:06;;;;;;;16.27;6.93;;;;;;;8.32;65.95;97082.31;4441841;32;20116;-82
2023/12/21 10:50:33;;;;;;;15.57;6.43;;;;;;;8.05;66.63;97085.31;4441918;32;20432;-83
2023/12/21 10:53:01;;;;;;;14.95;6.82;;;;;;;8.28;66.39;97065.38;4427531;32;20098;-83
2023/12/21 10:55:28;;;;;;;15.30;6.55;;;;;;;8.58;65.16;97065.63;4428031;32;20102;-83
2023/12/21 10:57:56;;;;;;;15.15;6.65;;;;;;;8.72;65.10;97055.50;4441660;32;20164;-83
2023/12/21 11:00:24;;;;;;;16.30;7.50;;;;;;;8.85;64.60;97056.53;4427478;32;20100;-83
2023/12/21 11:02:52;;;;;;;19.50;7.10;;;;;;;8.53;65.28;97049.63;4428253;32;20373;-83
2023/12/21 11:05:22;;;;;;;16.15;6.90;;;;;;;8.50;65.06;97031.75;4441833;32;20101;-83
2023/12/21 11:07:50;;;;;;;15.13;6.50;;;;;;;8.84;64.08;97039.44;4427700;32;20161;-83
2023/12/21 11:10:18;;;;;;;15.82;7.15;;;;;;;8.52;64.91;97015.34;4441781;32;20081;-83
2023/12/21 11:12:45;;;;;;;17.42;7.18;;;;;;;8.46;65.39;97007.13;4442300;32;20578;-83
2023/12/21 11:15:15;;;;;;;15.50;7.18;;;;;;;8.95;63.95;97008.81;4427154;32;20090;-83
2023/12/21 11:17:48;;;;;;;15.52;7.10;;;;;;;8.61;65.16;96991.75;4427991;32;20156;-83
2023/12/21 11:20:20;;;;;;;16.67;7.65;;;;;;;8.92;63.79;97003.81;4416457;32;20149;-83
2023/12/21 11:22:51;;;;;;;18.80;7.50;;;;;;;8.63;65.15;97004.53;4428435;32;20116;-83
2023/12/21 11:25:24;;;;;;;18.27;7.93;;;;;;;8.58;65.34;97002.19;4442298;32;20101;-83
2023/12/21 11:27:51;;;;;;;16.60;7.35;;;;;;;8.57;66.39;96989.41;4441950;32;20131;-83
2023/12/21 11:30:20;;;;;;;17.00;7.82;;;;;;;8.34;66.35;96977.69;4441763;32;20147;-83
2023/12/21 11:32:47;;;;;;;20.50;7.72;;;;;;;8.57;65.93;96968.84;4442277;32;20440;-83
2023/12/21 11:35:24;;;;;;;18.15;7.62;;;;;;;8.63;65.48;96959.06;4428174;32;20097;-83
2023/12/21 11:37:59;;;;;;;17.20;7.65;;;;;;;8.65;65.82;96941.81;4441852;32;20101;-83
2023/12/21 11:40:26;;;;;;;17.85;7.82;;;;;;;8.46;66.25;96938.53;4427610;32;20440;-83
2023/12/21 11:42:56;;;;;;;16.52;7.87;;;;;;;8.19;67.00;96939.91;4427611;32;20566;-83
2023/12/21 11:45:25;;;;;;;18.70;7.97;;;;;;;8.34;66.07;96932.28;4441743;32;20105;-83